sensor_id;sensor_type;location;lat;lon;timestamp;temperature;humidity
62862;DHT22;48953;53.110;5.592;2022-08-19T00:01:54;14.20;99.90
62862;DHT22;48953;53.110;5.592;2022-08-19T00:04:24;14.20;99.90
62862;DHT22;48953;53.110;5.592;2022-08-19T00:06:50;14.20;99.90
62862;DHT22;48953;53.110;5.592;2022-08-19T00:09:18;14.10;99.90
62862;DHT22;48953;53.110;5.592;2022-08-19T00:11:44;14.10;99.90
62862;DHT22;48953;53.110;5.592;2022-08-19T00:14:14;14.00;99.90
62862;DHT22;48953;53.110;5.592;2022-08-19T00:16:43;14.00;99.90
62862;DHT22;48953;53.110;5.592;2022-08-19T00:19:09;13.90;99.90
62862;DHT22;48953;53.110;5.592;2022-08-19T00:21:36;13.80;99.90
62862;DHT22;48953;53.110;5.592;2022-08-19T00:24:06;13.60;99.90
62862;DHT22;48953;53.110;5.592;2022-08-19T00:26:32;13.70;99.90
62862;DHT22;48953;53.110;5.592;2022-08-19T00:28:57;13.60;99.90
62862;DHT22;48953;53.110;5.592;2022-08-19T00:31:23;13.70;99.90
62862;DHT22;48953;53.110;5.592;2022-08-19T00:33:50;13.60;99.90
62862;DHT22;48953;53.110;5.592;2022-08-19T00:36:16;13.80;99.90
62862;DHT22;48953;53.110;5.592;2022-08-19T00:38:42;13.70;99.90
62862;DHT22;48953;53.110;5.592;2022-08-19T00:41:09;13.60;99.90
62862;DHT22;48953;53.110;5.592;2022-08-19T00:43:35;13.60;99.90
62862;DHT22;48953;53.110;5.592;2022-08-19T00:46:01;13.50;99.90
62862;DHT22;48953;53.110;5.592;2022-08-19T00:48:30;13.40;99.90
62862;DHT22;48953;53.110;5.592;2022-08-19T00:50:57;13.40;99.90
62862;DHT22;48953;53.110;5.592;2022-08-19T00:53:26;13.40;99.90
62862;DHT22;48953;53.110;5.592;2022-08-19T00:55:55;13.40;99.90
62862;DHT22;48953;53.110;5.592;2022-08-19T00:58:26;13.60;99.90
62862;DHT22;48953;53.110;5.592;2022-08-19T01:00:53;13.60;99.90
62862;DHT22;48953;53.110;5.592;2022-08-19T01:03:23;13.50;99.90
62862;DHT22;48953;53.110;5.592;2022-08-19T01:05:50;13.70;99.90
62862;DHT22;48953;53.110;5.592;2022-08-19T01:08:18;13.50;99.90
62862;DHT22;48953;53.110;5.592;2022-08-19T01:10:47;13.50;99.90
62862;DHT22;48953;53.110;5.592;2022-08-19T01:13:21;13.60;99.90
62862;DHT22;48953;53.110;5.592;2022-08-19T01:15:55;13.50;99.90
62862;DHT22;48953;53.110;5.592;2022-08-19T01:18:22;13.50;99.90
62862;DHT22;48953;53.110;5.592;2022-08-19T01:20:49;13.30;99.90
62862;DHT22;48953;53.110;5.592;2022-08-19T01:23:16;13.20;99.90
62862;DHT22;48953;53.110;5.592;2022-08-19T01:28:07;13.00;99.90
62862;DHT22;48953;53.110;5.592;2022-08-19T01:30:35;13.00;99.90
62862;DHT22;48953;53.110;5.592;2022-08-19T01:33:02;13.00;99.90
62862;DHT22;48953;53.110;5.592;2022-08-19T01:35:30;12.90;99.90
62862;DHT22;48953;53.110;5.592;2022-08-19T01:38:03;12.90;99.90
62862;DHT22;48953;53.110;5.592;2022-08-19T01:40:34;12.80;99.90
62862;DHT22;48953;53.110;5.592;2022-08-19T01:43:00;12.80;99.90
62862;DHT22;48953;53.110;5.592;2022-08-19T01:45:28;12.80;99.90
62862;DHT22;48953;53.110;5.592;2022-08-19T01:47:55;12.80;99.90
62862;DHT22;48953;53.110;5.592;2022-08-19T01:50:21;12.80;99.90
62862;DHT22;48953;53.110;5.592;2022-08-19T01:52:47;12.80;99.90
62862;DHT22;48953;53.110;5.592;2022-08-19T01:55:17;12.80;99.90
62862;DHT22;48953;53.110;5.592;2022-08-19T01:57:47;12.80;99.90
62862;DHT22;48953;53.110;5.592;2022-08-19T02:00:16;12.80;99.90
62862;DHT22;48953;53.110;5.592;2022-08-19T02:02:42;12.70;99.90
62862;DHT22;48953;53.110;5.592;2022-08-19T02:05:09;12.60;99.90
62862;DHT22;48953;53.110;5.592;2022-08-19T02:07:36;12.70;99.90
62862;DHT22;48953;53.110;5.592;2022-08-19T02:10:10;12.70;99.90
62862;DHT22;48953;53.110;5.592;2022-08-19T02:12:35;12.70;99.90
62862;DHT22;48953;53.110;5.592;2022-08-19T02:15:02;12.70;99.90
62862;DHT22;48953;53.110;5.592;2022-08-19T02:17:28;12.80;99.90
62862;DHT22;48953;53.110;5.592;2022-08-19T02:19:55;12.70;99.90
62862;DHT22;48953;53.110;5.592;2022-08-19T02:22:22;12.70;99.90
62862;DHT22;48953;53.110;5.592;2022-08-19T02:24:47;12.80;99.90
62862;DHT22;48953;53.110;5.592;2022-08-19T02:27:14;12.80;99.90
62862;DHT22;48953;53.110;5.592;2022-08-19T02:29:40;12.80;99.90
62862;DHT22;48953;53.110;5.592;2022-08-19T02:32:07;12.90;99.90
62862;DHT22;48953;53.110;5.592;2022-08-19T02:34:33;12.90;99.90
62862;DHT22;48953;53.110;5.592;2022-08-19T02:36:59;12.70;99.90
62862;DHT22;48953;53.110;5.592;2022-08-19T02:39:24;12.90;99.90
62862;DHT22;48953;53.110;5.592;2022-08-19T02:41:50;12.60;99.90
62862;DHT22;48953;53.110;5.592;2022-08-19T02:44:17;12.60;99.90
62862;DHT22;48953;53.110;5.592;2022-08-19T02:46:45;12.60;99.90
62862;DHT22;48953;53.110;5.592;2022-08-19T02:49:11;12.60;99.90
62862;DHT22;48953;53.110;5.592;2022-08-19T02:51:41;12.70;99.90
62862;DHT22;48953;53.110;5.592;2022-08-19T02:54:07;12.80;99.90
62862;DHT22;48953;53.110;5.592;2022-08-19T02:56:38;12.70;99.90
62862;DHT22;48953;53.110;5.592;2022-08-19T02:59:05;12.80;99.90
62862;DHT22;48953;53.110;5.592;2022-08-19T03:01:34;12.80;99.90
62862;DHT22;48953;53.110;5.592;2022-08-19T03:04:02;12.80;99.90
62862;DHT22;48953;53.110;5.592;2022-08-19T03:06:29;12.90;99.90
62862;DHT22;48953;53.110;5.592;2022-08-19T03:08:55;12.90;99.90
62862;DHT22;48953;53.110;5.592;2022-08-19T03:11:30;12.80;99.90
62862;DHT22;48953;53.110;5.592;2022-08-19T03:13:57;12.90;99.90
62862;DHT22;48953;53.110;5.592;2022-08-19T03:16:25;12.90;99.90
62862;DHT22;48953;53.110;5.592;2022-08-19T03:18:52;12.90;99.90
62862;DHT22;48953;53.110;5.592;2022-08-19T03:21:24;13.00;99.90
62862;DHT22;48953;53.110;5.592;2022-08-19T03:23:54;13.00;99.90
62862;DHT22;48953;53.110;5.592;2022-08-19T03:26:20;13.00;99.90
62862;DHT22;48953;53.110;5.592;2022-08-19T03:28:45;13.00;99.90
62862;DHT22;48953;53.110;5.592;2022-08-19T03:31:17;13.00;99.90
62862;DHT22;48953;53.110;5.592;2022-08-19T03:33:44;13.00;99.90
62862;DHT22;48953;53.110;5.592;2022-08-19T03:36:15;13.00;99.90
62862;DHT22;48953;53.110;5.592;2022-08-19T03:38:44;13.00;99.90
62862;DHT22;48953;53.110;5.592;2022-08-19T03:41:13;13.00;99.90
62862;DHT22;48953;53.110;5.592;2022-08-19T03:43:40;12.90;99.90
62862;DHT22;48953;53.110;5.592;2022-08-19T03:46:13;12.90;99.90
62862;DHT22;48953;53.110;5.592;2022-08-19T03:48:41;12.90;99.90
62862;DHT22;48953;53.110;5.592;2022-08-19T03:51:08;13.00;99.90
62862;DHT22;48953;53.110;5.592;2022-08-19T03:53:40;13.00;99.90
62862;DHT22;48953;53.110;5.592;2022-08-19T03:56:09;12.90;99.90
62862;DHT22;48953;53.110;5.592;2022-08-19T03:58:34;13.00;99.90
62862;DHT22;48953;53.110;5.592;2022-08-19T04:01:00;12.90;99.90
62862;DHT22;48953;53.110;5.592;2022-08-19T04:03:26;12.80;99.90
62862;DHT22;48953;53.110;5.592;2022-08-19T04:05:54;12.90;99.90
62862;DHT22;48953;53.110;5.592;2022-08-19T04:08:20;12.90;99.90
62862;DHT22;48953;53.110;5.592;2022-08-19T04:10:47;12.90;99.90
62862;DHT22;48953;53.110;5.592;2022-08-19T04:13:17;12.90;99.90
62862;DHT22;48953;53.110;5.592;2022-08-19T04:15:44;13.00;99.90
62862;DHT22;48953;53.110;5.592;2022-08-19T04:18:12;13.00;99.90
62862;DHT22;48953;53.110;5.592;2022-08-19T04:20:43;13.00;99.90
62862;DHT22;48953;53.110;5.592;2022-08-19T04:23:09;13.10;99.90
62862;DHT22;48953;53.110;5.592;2022-08-19T04:25:40;13.00;99.90
62862;DHT22;48953;53.110;5.592;2022-08-19T04:28:06;13.20;99.90
62862;DHT22;48953;53.110;5.592;2022-08-19T04:30:44;13.30;99.90
62862;DHT22;48953;53.110;5.592;2022-08-19T04:33:12;13.50;99.90
62862;DHT22;48953;53.110;5.592;2022-08-19T04:35:40;13.50;99.90
62862;DHT22;48953;53.110;5.592;2022-08-19T04:38:06;13.60;99.90
62862;DHT22;48953;53.110;5.592;2022-08-19T04:40:32;13.50;99.90
62862;DHT22;48953;53.110;5.592;2022-08-19T04:43:16;13.70;99.90
62862;DHT22;48953;53.110;5.592;2022-08-19T04:45:43;13.60;99.90
62862;DHT22;48953;53.110;5.592;2022-08-19T04:48:10;13.70;99.90
62862;DHT22;48953;53.110;5.592;2022-08-19T04:50:36;13.80;99.90
62862;DHT22;48953;53.110;5.592;2022-08-19T04:53:01;13.90;99.90
62862;DHT22;48953;53.110;5.592;2022-08-19T04:55:28;13.90;99.90
62862;DHT22;48953;53.110;5.592;2022-08-19T04:57:54;13.90;99.90
62862;DHT22;48953;53.110;5.592;2022-08-19T05:00:20;14.10;99.90
62862;DHT22;48953;53.110;5.592;2022-08-19T05:02:45;14.20;99.90
62862;DHT22;48953;53.110;5.592;2022-08-19T05:05:11;14.50;99.90
62862;DHT22;48953;53.110;5.592;2022-08-19T05:07:37;14.50;99.90
62862;DHT22;48953;53.110;5.592;2022-08-19T05:10:05;14.50;99.90
62862;DHT22;48953;53.110;5.592;2022-08-19T05:12:31;14.70;99.90
62862;DHT22;48953;53.110;5.592;2022-08-19T05:14:57;14.90;99.90
62862;DHT22;48953;53.110;5.592;2022-08-19T05:17:24;15.10;99.90
62862;DHT22;48953;53.110;5.592;2022-08-19T05:19:50;15.30;99.90
62862;DHT22;48953;53.110;5.592;2022-08-19T05:22:34;15.40;99.90
62862;DHT22;48953;53.110;5.592;2022-08-19T05:25:07;15.60;99.90
62862;DHT22;48953;53.110;5.592;2022-08-19T05:27:33;15.80;99.90
62862;DHT22;48953;53.110;5.592;2022-08-19T05:30:01;15.90;99.90
62862;DHT22;48953;53.110;5.592;2022-08-19T05:32:27;16.10;99.90
62862;DHT22;48953;53.110;5.592;2022-08-19T05:34:53;16.30;99.90
62862;DHT22;48953;53.110;5.592;2022-08-19T05:37:19;17.70;99.90
62862;DHT22;48953;53.110;5.592;2022-08-19T05:39:44;20.00;1.00
62862;DHT22;48953;53.110;5.592;2022-08-19T05:42:11;21.60;99.90
62862;DHT22;48953;53.110;5.592;2022-08-19T05:44:40;22.90;99.90
62862;DHT22;48953;53.110;5.592;2022-08-19T05:47:08;23.30;99.90
62862;DHT22;48953;53.110;5.592;2022-08-19T05:49:36;24.40;99.90
62862;DHT22;48953;53.110;5.592;2022-08-19T05:52:05;25.30;99.90
62862;DHT22;48953;53.110;5.592;2022-08-19T05:54:31;25.90;99.90
62862;DHT22;48953;53.110;5.592;2022-08-19T05:56:57;26.20;99.90
62862;DHT22;48953;53.110;5.592;2022-08-19T05:59:23;26.50;99.90
62862;DHT22;48953;53.110;5.592;2022-08-19T06:01:52;26.90;99.90
62862;DHT22;48953;53.110;5.592;2022-08-19T06:04:20;26.50;99.90
62862;DHT22;48953;53.110;5.592;2022-08-19T06:06:48;24.70;99.90
62862;DHT22;48953;53.110;5.592;2022-08-19T06:09:14;23.50;99.90
62862;DHT22;48953;53.110;5.592;2022-08-19T06:11:41;22.90;99.90
62862;DHT22;48953;53.110;5.592;2022-08-19T06:14:11;22.30;99.90
62862;DHT22;48953;53.110;5.592;2022-08-19T06:16:39;22.20;99.90
62862;DHT22;48953;53.110;5.592;2022-08-19T06:19:08;22.20;99.90
62862;DHT22;48953;53.110;5.592;2022-08-19T06:21:36;21.90;99.90
62862;DHT22;48953;53.110;5.592;2022-08-19T06:24:04;21.80;99.90
62862;DHT22;48953;53.110;5.592;2022-08-19T06:26:30;21.70;99.90
62862;DHT22;48953;53.110;5.592;2022-08-19T06:28:56;21.70;99.90
62862;DHT22;48953;53.110;5.592;2022-08-19T06:31:25;21.30;99.90
62862;DHT22;48953;53.110;5.592;2022-08-19T06:33:51;21.30;99.90
62862;DHT22;48953;53.110;5.592;2022-08-19T06:36:26;21.50;99.90
62862;DHT22;48953;53.110;5.592;2022-08-19T06:38:54;23.50;99.90
62862;DHT22;48953;53.110;5.592;2022-08-19T06:41:19;27.00;99.90
62862;DHT22;48953;53.110;5.592;2022-08-19T06:43:45;29.30;99.90
62862;DHT22;48953;53.110;5.592;2022-08-19T06:46:14;30.50;99.90
62862;DHT22;48953;53.110;5.592;2022-08-19T06:48:40;32.00;99.90
62862;DHT22;48953;53.110;5.592;2022-08-19T06:51:06;32.10;99.90
62862;DHT22;48953;53.110;5.592;2022-08-19T06:53:32;33.50;99.90
62862;DHT22;48953;53.110;5.592;2022-08-19T06:55:59;33.90;99.90
62862;DHT22;48953;53.110;5.592;2022-08-19T06:58:28;34.20;99.90
62862;DHT22;48953;53.110;5.592;2022-08-19T07:01:02;32.30;99.90
62862;DHT22;48953;53.110;5.592;2022-08-19T07:03:30;30.60;99.90
62862;DHT22;48953;53.110;5.592;2022-08-19T07:05:57;29.90;99.90
62862;DHT22;48953;53.110;5.592;2022-08-19T07:08:22;29.70;99.90
62862;DHT22;48953;53.110;5.592;2022-08-19T07:10:49;29.40;99.90
62862;DHT22;48953;53.110;5.592;2022-08-19T07:13:15;31.50;99.90
62862;DHT22;48953;53.110;5.592;2022-08-19T07:15:41;34.50;99.90
62862;DHT22;48953;53.110;5.592;2022-08-19T07:18:06;35.60;99.90
62862;DHT22;48953;53.110;5.592;2022-08-19T07:20:32;36.30;99.90
62862;DHT22;48953;53.110;5.592;2022-08-19T07:22:58;36.30;99.90
62862;DHT22;48953;53.110;5.592;2022-08-19T07:25:23;36.90;99.90
62862;DHT22;48953;53.110;5.592;2022-08-19T07:27:50;38.20;99.90
62862;DHT22;48953;53.110;5.592;2022-08-19T07:30:16;37.40;99.90
62862;DHT22;48953;53.110;5.592;2022-08-19T07:32:42;37.50;99.90
62862;DHT22;48953;53.110;5.592;2022-08-19T07:35:08;36.70;99.90
62862;DHT22;48953;53.110;5.592;2022-08-19T07:37:35;38.60;99.90
62862;DHT22;48953;53.110;5.592;2022-08-19T07:40:04;39.50;99.90
62862;DHT22;48953;53.110;5.592;2022-08-19T07:42:30;40.40;99.90
62862;DHT22;48953;53.110;5.592;2022-08-19T07:44:55;41.20;99.90
62862;DHT22;48953;53.110;5.592;2022-08-19T07:47:21;42.30;99.90
62862;DHT22;48953;53.110;5.592;2022-08-19T07:49:47;42.60;99.90
62862;DHT22;48953;53.110;5.592;2022-08-19T07:52:12;42.60;99.90
62862;DHT22;48953;53.110;5.592;2022-08-19T07:54:38;42.50;99.90
62862;DHT22;48953;53.110;5.592;2022-08-19T07:57:05;43.30;99.90
62862;DHT22;48953;53.110;5.592;2022-08-19T07:59:31;43.80;99.90
62862;DHT22;48953;53.110;5.592;2022-08-19T08:01:58;44.00;99.80
62862;DHT22;48953;53.110;5.592;2022-08-19T08:04:26;44.50;98.00
62862;DHT22;48953;53.110;5.592;2022-08-19T08:07:10;43.70;96.50
62862;DHT22;48953;53.110;5.592;2022-08-19T08:09:54;43.00;97.30
62862;DHT22;48953;53.110;5.592;2022-08-19T08:12:30;41.60;95.80
62862;DHT22;48953;53.110;5.592;2022-08-19T08:14:59;41.40;95.30
62862;DHT22;48953;53.110;5.592;2022-08-19T08:17:27;42.50;95.20
62862;DHT22;48953;53.110;5.592;2022-08-19T08:19:54;43.20;94.20
62862;DHT22;48953;53.110;5.592;2022-08-19T08:22:22;40.90;94.50
62862;DHT22;48953;53.110;5.592;2022-08-19T08:25:11;36.60;95.60
62862;DHT22;48953;53.110;5.592;2022-08-19T08:27:38;34.60;99.20
62862;DHT22;48953;53.110;5.592;2022-08-19T08:30:09;34.70;99.90
62862;DHT22;48953;53.110;5.592;2022-08-19T08:32:39;35.10;99.90
62862;DHT22;48953;53.110;5.592;2022-08-19T08:35:06;37.10;99.90
62862;DHT22;48953;53.110;5.592;2022-08-19T08:37:32;35.10;99.90
62862;DHT22;48953;53.110;5.592;2022-08-19T08:39:58;33.40;99.90
62862;DHT22;48953;53.110;5.592;2022-08-19T08:42:34;32.30;99.90
62862;DHT22;48953;53.110;5.592;2022-08-19T08:45:12;33.60;99.90
62862;DHT22;48953;53.110;5.592;2022-08-19T08:47:43;35.10;99.90
62862;DHT22;48953;53.110;5.592;2022-08-19T08:53:02;37.70;99.90
62862;DHT22;48953;53.110;5.592;2022-08-19T08:55:31;35.70;99.90
62862;DHT22;48953;53.110;5.592;2022-08-19T08:58:06;35.20;99.90
62862;DHT22;48953;53.110;5.592;2022-08-19T09:00:39;33.80;99.90
62862;DHT22;48953;53.110;5.592;2022-08-19T09:03:18;33.40;99.90
62862;DHT22;48953;53.110;5.592;2022-08-19T09:06:07;38.10;99.90
62862;DHT22;48953;53.110;5.592;2022-08-19T09:09:02;37.30;99.90
62862;DHT22;48953;53.110;5.592;2022-08-19T09:14:34;37.80;99.90
62862;DHT22;48953;53.110;5.592;2022-08-19T09:17:01;35.70;99.90
62862;DHT22;48953;53.110;5.592;2022-08-19T09:19:29;35.10;99.90
62862;DHT22;48953;53.110;5.592;2022-08-19T09:21:54;33.80;99.90
62862;DHT22;48953;53.110;5.592;2022-08-19T09:24:20;36.50;99.90
62862;DHT22;48953;53.110;5.592;2022-08-19T09:26:45;39.30;99.90
62862;DHT22;48953;53.110;5.592;2022-08-19T09:29:12;40.10;99.90
62862;DHT22;48953;53.110;5.592;2022-08-19T09:31:38;40.90;99.90
62862;DHT22;48953;53.110;5.592;2022-08-19T09:34:03;42.50;99.90
62862;DHT22;48953;53.110;5.592;2022-08-19T09:36:30;42.70;98.40
62862;DHT22;48953;53.110;5.592;2022-08-19T09:38:59;41.40;97.60
62862;DHT22;48953;53.110;5.592;2022-08-19T09:41:26;42.60;95.90
62862;DHT22;48953;53.110;5.592;2022-08-19T09:43:53;41.90;93.70
62862;DHT22;48953;53.110;5.592;2022-08-19T09:46:20;38.80;93.60
62862;DHT22;48953;53.110;5.592;2022-08-19T09:48:47;38.90;97.00
62862;DHT22;48953;53.110;5.592;2022-08-19T09:51:16;38.70;97.40
62862;DHT22;48953;53.110;5.592;2022-08-19T09:53:46;37.80;95.70
62862;DHT22;48953;53.110;5.592;2022-08-19T09:56:12;37.10;97.10
62862;DHT22;48953;53.110;5.592;2022-08-19T09:58:39;36.60;98.80
62862;DHT22;48953;53.110;5.592;2022-08-19T10:01:06;39.90;98.70
62862;DHT22;48953;53.110;5.592;2022-08-19T10:03:34;39.70;95.00
62862;DHT22;48953;53.110;5.592;2022-08-19T10:06:02;40.80;95.20
62862;DHT22;48953;53.110;5.592;2022-08-19T10:08:31;42.50;93.10
62862;DHT22;48953;53.110;5.592;2022-08-19T10:10:59;42.50;91.90
62862;DHT22;48953;53.110;5.592;2022-08-19T10:13:27;41.10;91.20
62862;DHT22;48953;53.110;5.592;2022-08-19T10:15:55;38.60;90.70
62862;DHT22;48953;53.110;5.592;2022-08-19T10:18:23;36.10;92.60
62862;DHT22;48953;53.110;5.592;2022-08-19T10:20:50;35.60;93.40
62862;DHT22;48953;53.110;5.592;2022-08-19T10:23:19;36.70;94.70
62862;DHT22;48953;53.110;5.592;2022-08-19T10:25:45;36.50;96.30
62862;DHT22;48953;53.110;5.592;2022-08-19T10:28:11;36.30;95.60
62862;DHT22;48953;53.110;5.592;2022-08-19T10:30:40;35.80;94.80
62862;DHT22;48953;53.110;5.592;2022-08-19T10:33:06;36.40;95.80
62862;DHT22;48953;53.110;5.592;2022-08-19T10:35:32;35.60;95.90
62862;DHT22;48953;53.110;5.592;2022-08-19T10:37:57;36.50;96.70
62862;DHT22;48953;53.110;5.592;2022-08-19T10:40:27;37.90;95.70
62862;DHT22;48953;53.110;5.592;2022-08-19T10:42:54;39.00;94.90
62862;DHT22;48953;53.110;5.592;2022-08-19T10:45:21;36.50;94.80
62862;DHT22;48953;53.110;5.592;2022-08-19T10:47:48;35.30;95.10
62862;DHT22;48953;53.110;5.592;2022-08-19T10:50:14;34.20;95.90
62862;DHT22;48953;53.110;5.592;2022-08-19T10:53:04;36.60;97.20
62862;DHT22;48953;53.110;5.592;2022-08-19T10:55:29;37.50;95.40
62862;DHT22;48953;53.110;5.592;2022-08-19T10:58:16;35.90;95.50
62862;DHT22;48953;53.110;5.592;2022-08-19T11:00:42;35.20;96.80
62862;DHT22;48953;53.110;5.592;2022-08-19T11:03:09;33.80;97.80
62862;DHT22;48953;53.110;5.592;2022-08-19T11:05:35;33.50;98.00
62862;DHT22;48953;53.110;5.592;2022-08-19T11:08:02;32.40;99.00
62862;DHT22;48953;53.110;5.592;2022-08-19T11:10:28;31.70;99.90
62862;DHT22;48953;53.110;5.592;2022-08-19T11:12:53;30.80;99.90
62862;DHT22;48953;53.110;5.592;2022-08-19T11:15:20;31.10;99.90
62862;DHT22;48953;53.110;5.592;2022-08-19T11:17:46;31.90;99.90
62862;DHT22;48953;53.110;5.592;2022-08-19T11:20:13;32.50;99.90
62862;DHT22;48953;53.110;5.592;2022-08-19T11:22:40;32.00;99.90
62862;DHT22;48953;53.110;5.592;2022-08-19T11:25:07;32.10;99.90
62862;DHT22;48953;53.110;5.592;2022-08-19T11:27:33;32.00;99.90
62862;DHT22;48953;53.110;5.592;2022-08-19T11:29:59;32.60;99.90
62862;DHT22;48953;53.110;5.592;2022-08-19T11:32:25;32.70;99.90
62862;DHT22;48953;53.110;5.592;2022-08-19T11:34:51;32.70;99.90
62862;DHT22;48953;53.110;5.592;2022-08-19T11:37:17;33.00;99.90
62862;DHT22;48953;53.110;5.592;2022-08-19T11:39:42;33.40;99.90
62862;DHT22;48953;53.110;5.592;2022-08-19T11:42:08;33.40;99.90
62862;DHT22;48953;53.110;5.592;2022-08-19T11:44:52;33.20;99.90
62862;DHT22;48953;53.110;5.592;2022-08-19T11:47:18;33.00;99.90
62862;DHT22;48953;53.110;5.592;2022-08-19T11:49:46;32.60;99.90
62862;DHT22;48953;53.110;5.592;2022-08-19T11:52:11;32.30;99.90
62862;DHT22;48953;53.110;5.592;2022-08-19T11:54:37;31.90;99.90
62862;DHT22;48953;53.110;5.592;2022-08-19T11:57:03;31.70;99.90
62862;DHT22;48953;53.110;5.592;2022-08-19T11:59:29;32.10;99.90
62862;DHT22;48953;53.110;5.592;2022-08-19T12:01:55;32.50;99.90
62862;DHT22;48953;53.110;5.592;2022-08-19T12:04:21;32.60;99.90
62862;DHT22;48953;53.110;5.592;2022-08-19T12:06:47;32.20;99.90
62862;DHT22;48953;53.110;5.592;2022-08-19T12:09:13;32.30;99.90
62862;DHT22;48953;53.110;5.592;2022-08-19T12:11:40;32.70;99.90
62862;DHT22;48953;53.110;5.592;2022-08-19T12:14:09;32.40;99.90
62862;DHT22;48953;53.110;5.592;2022-08-19T12:16:35;32.40;99.90
62862;DHT22;48953;53.110;5.592;2022-08-19T12:19:03;32.20;99.90
62862;DHT22;48953;53.110;5.592;2022-08-19T12:21:31;31.40;99.90
62862;DHT22;48953;53.110;5.592;2022-08-19T12:23:58;31.50;99.90
62862;DHT22;48953;53.110;5.592;2022-08-19T12:26:26;32.00;99.90
62862;DHT22;48953;53.110;5.592;2022-08-19T12:28:52;31.80;99.90
62862;DHT22;48953;53.110;5.592;2022-08-19T12:31:18;31.50;99.90
62862;DHT22;48953;53.110;5.592;2022-08-19T12:33:45;31.80;99.90
62862;DHT22;48953;53.110;5.592;2022-08-19T12:36:12;31.90;99.90
62862;DHT22;48953;53.110;5.592;2022-08-19T12:38:39;32.50;99.90
62862;DHT22;48953;53.110;5.592;2022-08-19T12:41:06;32.00;99.90
62862;DHT22;48953;53.110;5.592;2022-08-19T12:43:35;32.50;99.90
62862;DHT22;48953;53.110;5.592;2022-08-19T12:46:05;32.20;99.90
62862;DHT22;48953;53.110;5.592;2022-08-19T12:48:32;32.50;99.90
62862;DHT22;48953;53.110;5.592;2022-08-19T12:50:58;32.50;99.90
62862;DHT22;48953;53.110;5.592;2022-08-19T12:53:23;31.80;99.90
62862;DHT22;48953;53.110;5.592;2022-08-19T12:55:57;31.90;99.90
62862;DHT22;48953;53.110;5.592;2022-08-19T12:58:23;32.00;99.90
62862;DHT22;48953;53.110;5.592;2022-08-19T13:00:48;31.90;99.90
62862;DHT22;48953;53.110;5.592;2022-08-19T13:03:14;31.70;99.90
62862;DHT22;48953;53.110;5.592;2022-08-19T13:05:40;31.90;99.90
62862;DHT22;48953;53.110;5.592;2022-08-19T13:08:06;31.20;99.90
62862;DHT22;48953;53.110;5.592;2022-08-19T13:10:33;31.20;99.90
62862;DHT22;48953;53.110;5.592;2022-08-19T13:13:01;31.70;99.90
62862;DHT22;48953;53.110;5.592;2022-08-19T13:15:27;31.80;99.90
62862;DHT22;48953;53.110;5.592;2022-08-19T13:17:57;31.80;99.90
62862;DHT22;48953;53.110;5.592;2022-08-19T13:20:23;32.00;99.90
62862;DHT22;48953;53.110;5.592;2022-08-19T13:22:49;31.50;99.90
62862;DHT22;48953;53.110;5.592;2022-08-19T13:25:15;31.20;99.90
62862;DHT22;48953;53.110;5.592;2022-08-19T13:27:43;31.50;99.90
62862;DHT22;48953;53.110;5.592;2022-08-19T13:30:11;32.00;99.90
62862;DHT22;48953;53.110;5.592;2022-08-19T13:32:56;31.70;99.90
62862;DHT22;48953;53.110;5.592;2022-08-19T13:35:38;32.50;99.90
62862;DHT22;48953;53.110;5.592;2022-08-19T13:38:04;32.30;99.90
62862;DHT22;48953;53.110;5.592;2022-08-19T13:40:31;31.70;99.90
62862;DHT22;48953;53.110;5.592;2022-08-19T13:43:00;31.80;99.90
62862;DHT22;48953;53.110;5.592;2022-08-19T13:45:28;31.40;99.90
62862;DHT22;48953;53.110;5.592;2022-08-19T13:47:55;31.00;99.90
62862;DHT22;48953;53.110;5.592;2022-08-19T13:50:27;31.10;99.90
62862;DHT22;48953;53.110;5.592;2022-08-19T13:52:54;30.70;99.90
62862;DHT22;48953;53.110;5.592;2022-08-19T13:55:21;30.50;99.90
62862;DHT22;48953;53.110;5.592;2022-08-19T13:57:53;30.80;99.90
62862;DHT22;48953;53.110;5.592;2022-08-19T14:00:20;30.80;99.90
62862;DHT22;48953;53.110;5.592;2022-08-19T14:02:47;31.50;99.90
62862;DHT22;48953;53.110;5.592;2022-08-19T14:05:16;31.80;99.90
62862;DHT22;48953;53.110;5.592;2022-08-19T14:07:42;31.90;99.90
62862;DHT22;48953;53.110;5.592;2022-08-19T14:10:09;31.30;99.90
62862;DHT22;48953;53.110;5.592;2022-08-19T14:12:35;31.00;99.90
62862;DHT22;48953;53.110;5.592;2022-08-19T14:15:02;31.20;99.90
62862;DHT22;48953;53.110;5.592;2022-08-19T14:17:28;30.70;99.90
62862;DHT22;48953;53.110;5.592;2022-08-19T14:20:01;30.60;99.90
62862;DHT22;48953;53.110;5.592;2022-08-19T14:22:30;30.20;99.90
62862;DHT22;48953;53.110;5.592;2022-08-19T14:24:57;29.80;99.90
62862;DHT22;48953;53.110;5.592;2022-08-19T14:27:22;29.60;99.90
62862;DHT22;48953;53.110;5.592;2022-08-19T14:29:51;29.60;99.90
62862;DHT22;48953;53.110;5.592;2022-08-19T14:32:17;29.50;99.90
62862;DHT22;48953;53.110;5.592;2022-08-19T14:34:43;29.60;99.90
62862;DHT22;48953;53.110;5.592;2022-08-19T14:37:11;29.60;99.90
62862;DHT22;48953;53.110;5.592;2022-08-19T14:39:39;29.70;99.90
62862;DHT22;48953;53.110;5.592;2022-08-19T14:42:08;29.20;99.90
62862;DHT22;48953;53.110;5.592;2022-08-19T14:44:34;29.50;99.90
62862;DHT22;48953;53.110;5.592;2022-08-19T14:47:00;29.50;99.90
62862;DHT22;48953;53.110;5.592;2022-08-19T14:49:26;29.30;99.90
62862;DHT22;48953;53.110;5.592;2022-08-19T14:51:51;29.00;99.90
62862;DHT22;48953;53.110;5.592;2022-08-19T14:54:17;28.70;99.90
62862;DHT22;48953;53.110;5.592;2022-08-19T14:56:45;28.60;99.90
62862;DHT22;48953;53.110;5.592;2022-08-19T14:59:12;28.70;99.90
62862;DHT22;48953;53.110;5.592;2022-08-19T15:01:38;28.30;99.90
62862;DHT22;48953;53.110;5.592;2022-08-19T15:04:04;28.70;99.90
62862;DHT22;48953;53.110;5.592;2022-08-19T15:06:29;28.70;99.90
62862;DHT22;48953;53.110;5.592;2022-08-19T15:08:55;28.80;99.90
62862;DHT22;48953;53.110;5.592;2022-08-19T15:11:24;28.90;99.90
62862;DHT22;48953;53.110;5.592;2022-08-19T15:13:50;28.70;99.90
62862;DHT22;48953;53.110;5.592;2022-08-19T15:16:17;28.50;99.90
62862;DHT22;48953;53.110;5.592;2022-08-19T15:18:43;28.30;99.90
62862;DHT22;48953;53.110;5.592;2022-08-19T15:21:13;28.30;99.90
62862;DHT22;48953;53.110;5.592;2022-08-19T15:23:40;27.90;99.90
62862;DHT22;48953;53.110;5.592;2022-08-19T15:26:06;27.60;99.90
62862;DHT22;48953;53.110;5.592;2022-08-19T15:28:35;27.20;99.90
62862;DHT22;48953;53.110;5.592;2022-08-19T15:31:01;27.20;99.90
62862;DHT22;48953;53.110;5.592;2022-08-19T15:33:27;27.10;99.90
62862;DHT22;48953;53.110;5.592;2022-08-19T15:35:52;27.10;99.90
62862;DHT22;48953;53.110;5.592;2022-08-19T15:38:19;26.80;99.90
62862;DHT22;48953;53.110;5.592;2022-08-19T15:40:47;26.80;99.90
62862;DHT22;48953;53.110;5.592;2022-08-19T15:43:14;26.60;99.90